Time;durP1;ratioP1;P1;durP2;ratioP2;P2;SDS_P1;SDS_P2;PMS_P1;PMS_P2;Temp;Humidity;BMP_temperature;BMP_pressure;BME280_temperature;BME280_humidity;BME280_pressure;Samples;Min_cycle;Max_cycle;Signal;HPM_P1;HPM_P2
2023/01/11 00:01:32;;;;;;;1999.90;999.90;;;;;;;;;;4997895;28;20706;-70
2023/01/11 00:04:00;;;;;;;1999.90;999.90;;;;;;;;;;5004561;28;20264;-69
2023/01/11 00:06:28;;;;;;;1999.90;999.90;;;;;;;;;;5001236;28;20240;-69
2023/01/11 00:08:57;;;;;;;1999.90;999.90;;;;;;;;;;5003105;28;20230;-69
2023/01/11 00:11:25;;;;;;;1999.90;999.90;;;;;;;;;;5003503;28;20722;-69
2023/01/11 00:13:54;;;;;;;1999.90;999.90;;;;;;;;;;5004361;28;20221;-69
2023/01/11 00:16:23;;;;;;;1999.90;999.90;;;;;;;;;;5000465;28;20234;-69
2023/01/11 00:18:51;;;;;;;1999.90;999.90;;;;;;;;;;5002432;28;20225;-70
2023/01/11 00:21:20;;;;;;;1999.90;999.90;;;;;;;;;;5000957;28;20733;-70
2023/01/11 00:23:48;;;;;;;1999.90;999.90;;;;;;;;;;5002187;28;20238;-70
2023/01/11 00:26:16;;;;;;;1999.90;999.90;;;;;;;;;;5003025;28;20328;-70
2023/01/11 00:28:47;;;;;;;1999.90;999.90;;;;;;;;;;5000534;28;20253;-70
2023/01/11 00:31:17;;;;;;;1999.90;999.90;;;;;;;;;;4985220;28;20773;-69
2023/01/11 00:33:45;;;;;;;1999.90;999.90;;;;;;;;;;5002595;28;20233;-70
2023/01/11 00:36:13;;;;;;;1999.90;999.90;;;;;;;;;;4999705;28;20718;-70
2023/01/11 00:38:45;;;;;;;1999.90;999.90;;;;;;;;;;5001899;28;20313;-70
2023/01/11 00:49:33;;;;;;;1999.90;999.90;;;;;;;;;;4984623;28;20225;-69
2023/01/11 00:52:04;;;;;;;1999.90;999.90;;;;;;;;;;5001278;28;20241;-70
2023/01/11 00:54:32;;;;;;;1999.90;999.90;;;;;;;;;;5002352;28;21411;-70
2023/01/11 00:57:00;;;;;;;1999.90;999.90;;;;;;;;;;5002525;28;20322;-70
2023/01/11 00:59:28;;;;;;;1999.90;999.90;;;;;;;;;;5003543;28;20237;-71
2023/01/11 01:01:57;;;;;;;1999.90;999.90;;;;;;;;;;5001053;28;20316;-70
2023/01/11 01:04:25;;;;;;;1999.90;999.90;;;;;;;;;;5000788;28;21012;-70
2023/01/11 01:06:53;;;;;;;1999.90;999.90;;;;;;;;;;5002065;28;20813;-70
2023/01/11 01:09:21;;;;;;;1999.90;999.90;;;;;;;;;;5001083;28;20230;-70
2023/01/11 01:11:49;;;;;;;1999.90;999.90;;;;;;;;;;5000090;28;20321;-69
2023/01/11 01:14:25;;;;;;;1999.90;999.90;;;;;;;;;;4985799;28;20288;-69
2023/01/11 01:16:54;;;;;;;1999.90;999.90;;;;;;;;;;5002636;28;20230;-70
2023/01/11 01:19:23;;;;;;;1999.90;999.90;;;;;;;;;;5000328;28;20229;-70
2023/01/11 01:21:51;;;;;;;1999.90;999.90;;;;;;;;;;5003376;28;20242;-70
2023/01/11 01:24:19;;;;;;;1999.90;999.90;;;;;;;;;;4988401;28;20722;-70
2023/01/11 01:26:47;;;;;;;1999.90;999.90;;;;;;;;;;5004604;28;21022;-70
2023/01/11 01:29:16;;;;;;;1999.90;999.90;;;;;;;;;;5001493;28;20316;-70
2023/01/11 01:31:44;;;;;;;1999.90;999.90;;;;;;;;;;5003094;28;20305;-70
2023/01/11 01:34:12;;;;;;;1999.90;999.90;;;;;;;;;;5003060;28;20251;-75
2023/01/11 01:36:41;;;;;;;1999.90;999.90;;;;;;;;;;5019349;28;20334;-70
2023/01/11 01:39:10;;;;;;;1999.90;999.90;;;;;;;;;;5005104;28;20222;-70
2023/01/11 01:41:38;;;;;;;1999.90;999.90;;;;;;;;;;5001404;28;20234;-70
2023/01/11 01:44:26;;;;;;;1999.90;999.90;;;;;;;;;;5006362;28;20230;-70
2023/01/11 01:46:54;;;;;;;1999.90;999.90;;;;;;;;;;5004312;28;20238;-70
2023/01/11 01:49:22;;;;;;;1999.90;999.90;;;;;;;;;;5003129;28;20316;-70
2023/01/11 01:51:52;;;;;;;1999.90;999.90;;;;;;;;;;4987685;28;20727;-70
2023/01/11 01:54:22;;;;;;;1999.90;999.90;;;;;;;;;;5004942;28;20292;-70
2023/01/11 01:56:51;;;;;;;1999.90;999.90;;;;;;;;;;5022038;28;21543;-70
2023/01/11 01:59:21;;;;;;;1999.90;999.90;;;;;;;;;;4999494;28;20262;-70
2023/01/11 02:01:49;;;;;;;1999.90;999.90;;;;;;;;;;5004629;28;20230;-70
2023/01/11 02:04:21;;;;;;;1999.90;999.90;;;;;;;;;;5004191;28;20252;-69
2023/01/11 02:06:52;;;;;;;1999.90;999.90;;;;;;;;;;5006294;28;20686;-70
2023/01/11 02:09:25;;;;;;;1999.90;999.90;;;;;;;;;;5006783;28;20226;-70
2023/01/11 02:11:54;;;;;;;1999.90;999.90;;;;;;;;;;5007322;28;20238;-70
2023/01/11 02:14:22;;;;;;;1999.90;999.90;;;;;;;;;;5004010;28;20308;-75
2023/01/11 02:16:50;;;;;;;1999.90;999.90;;;;;;;;;;4987916;28;20230;-76
2023/01/11 02:19:22;;;;;;;1999.90;999.90;;;;;;;;;;5004572;28;20234;-77
2023/01/11 02:22:03;;;;;;;1999.90;999.90;;;;;;;;;;5005732;28;20262;-76
2023/01/11 02:24:46;;;;;;;1999.90;999.90;;;;;;;;;;5006358;28;20304;-69
2023/01/11 02:27:24;;;;;;;1999.90;999.90;;;;;;;;;;5005949;28;20317;-69
2023/01/11 02:29:58;;;;;;;1999.90;999.90;;;;;;;;;;5006515;28;20304;-69
2023/01/11 02:32:29;;;;;;;1999.90;999.90;;;;;;;;;;5007272;28;20237;-69
2023/01/11 02:35:03;;;;;;;1999.90;999.90;;;;;;;;;;5005770;28;20352;-70
2023/01/11 02:37:37;;;;;;;1999.90;999.90;;;;;;;;;;4998325;28;20257;-69
2023/01/11 02:40:07;;;;;;;1999.90;999.90;;;;;;;;;;5004767;28;20300;-69
2023/01/11 02:45:44;;;;;;;1999.90;999.90;;;;;;;;;;5020077;28;21696;-69
2023/01/11 02:48:19;;;;;;;1999.90;999.90;;;;;;;;;;5002161;28;20245;-69
2023/01/11 02:50:50;;;;;;;1999.90;999.90;;;;;;;;;;5003836;28;20312;-69
2023/01/11 02:53:23;;;;;;;1999.90;999.90;;;;;;;;;;5003052;28;20233;-69
2023/01/11 02:55:54;;;;;;;1999.90;999.90;;;;;;;;;;5003009;28;20325;-69
2023/01/11 02:58:24;;;;;;;1999.90;999.90;;;;;;;;;;5003459;28;20240;-69
2023/01/11 03:00:54;;;;;;;1999.90;999.90;;;;;;;;;;5006363;28;20269;-69
2023/01/11 03:03:26;;;;;;;1999.90;999.90;;;;;;;;;;5002528;28;20230;-69
2023/01/11 03:05:56;;;;;;;1999.90;999.90;;;;;;;;;;5002572;28;20339;-68
2023/01/11 03:08:34;;;;;;;1999.90;999.90;;;;;;;;;;5001755;28;20953;-69
2023/01/11 03:11:05;;;;;;;1999.90;999.90;;;;;;;;;;5002387;28;20234;-69
2023/01/11 03:13:40;;;;;;;1999.90;999.90;;;;;;;;;;5019766;28;20238;-69
2023/01/11 03:16:19;;;;;;;1999.90;999.90;;;;;;;;;;5002244;28;20230;-70
2023/01/11 03:18:52;;;;;;;1999.90;999.90;;;;;;;;;;4997490;28;21186;-69
2023/01/11 03:21:33;;;;;;;1999.90;999.90;;;;;;;;;;5002356;28;21437;-69
2023/01/11 03:24:05;;;;;;;1999.90;999.90;;;;;;;;;;5003127;28;20236;-70
2023/01/11 03:26:38;;;;;;;1999.90;999.90;;;;;;;;;;5002326;28;21510;-69
2023/01/11 03:29:11;;;;;;;1999.90;999.90;;;;;;;;;;5001730;28;20312;-70
2023/01/11 03:31:39;;;;;;;1999.90;999.90;;;;;;;;;;5000729;28;20265;-70
2023/01/11 03:34:13;;;;;;;1999.90;999.90;;;;;;;;;;5018723;28;20244;-69
2023/01/11 03:36:43;;;;;;;1999.90;999.90;;;;;;;;;;5001264;28;20232;-69
2023/01/11 03:39:15;;;;;;;1999.90;999.90;;;;;;;;;;5002825;28;20736;-69
2023/01/11 03:41:44;;;;;;;1999.90;999.90;;;;;;;;;;5004051;28;20271;-69
2023/01/11 03:44:13;;;;;;;1999.90;999.90;;;;;;;;;;5003477;28;20651;-69
2023/01/11 03:46:44;;;;;;;1999.90;999.90;;;;;;;;;;5002647;28;20312;-69
2023/01/11 03:49:15;;;;;;;1999.90;999.90;;;;;;;;;;5004317;28;20232;-69
2023/01/11 03:51:44;;;;;;;1999.90;999.90;;;;;;;;;;5002824;28;20345;-70
2023/01/11 03:54:15;;;;;;;1999.90;999.90;;;;;;;;;;5004596;28;20240;-69
2023/01/11 03:56:47;;;;;;;1999.90;999.90;;;;;;;;;;4986583;28;20233;-68
2023/01/11 03:59:15;;;;;;;1999.90;999.90;;;;;;;;;;5004737;28;20233;-68
2023/01/11 04:01:43;;;;;;;1999.90;999.90;;;;;;;;;;5004485;28;20292;-69
2023/01/11 04:04:11;;;;;;;1999.90;999.90;;;;;;;;;;5004982;28;20314;-69
2023/01/11 04:06:40;;;;;;;1999.90;999.90;;;;;;;;;;4985565;28;20275;-69
2023/01/11 04:09:08;;;;;;;1999.90;999.90;;;;;;;;;;5002525;28;20292;-70
2023/01/11 04:11:36;;;;;;;1999.90;999.90;;;;;;;;;;5004796;28;20272;-69
2023/01/11 04:14:04;;;;;;;1999.90;999.90;;;;;;;;;;5004286;28;20230;-69
2023/01/11 04:16:32;;;;;;;1999.90;999.90;;;;;;;;;;5000273;28;20352;-70
2023/01/11 04:19:01;;;;;;;1999.90;999.90;;;;;;;;;;5004174;28;20257;-70
2023/01/11 04:21:29;;;;;;;1999.90;999.90;;;;;;;;;;5001907;28;20238;-69
2023/01/11 04:23:59;;;;;;;1999.90;999.90;;;;;;;;;;5001489;28;20240;-70
2023/01/11 04:26:26;;;;;;;1999.90;999.90;;;;;;;;;;5000603;28;20241;-70
2023/01/11 04:28:55;;;;;;;1999.90;999.90;;;;;;;;;;5002523;28;20246;-69
2023/01/11 04:31:22;;;;;;;1999.90;999.90;;;;;;;;;;5001640;28;20312;-69
2023/01/11 04:33:51;;;;;;;1999.90;999.90;;;;;;;;;;5001268;28;20312;-70
2023/01/11 04:36:19;;;;;;;1999.90;999.90;;;;;;;;;;5002106;28;20234;-69
2023/01/11 04:38:47;;;;;;;1999.90;999.90;;;;;;;;;;5018991;22;20237;-66
2023/01/11 04:44:02;;;;;;;1999.90;999.90;;;;;;;;;;5011011;28;20719;-66
2023/01/11 04:46:30;;;;;;;1999.90;999.90;;;;;;;;;;5002826;28;20675;-66
2023/01/11 04:48:58;;;;;;;1999.90;999.90;;;;;;;;;;5015180;28;20329;-66
2023/01/11 04:51:26;;;;;;;1999.90;999.90;;;;;;;;;;5001335;28;20309;-66
2023/01/11 04:53:54;;;;;;;1999.90;999.90;;;;;;;;;;4999923;28;20230;-66
2023/01/11 04:56:24;;;;;;;1999.90;999.90;;;;;;;;;;5001452;28;20249;-66
2023/01/11 04:58:51;;;;;;;1999.90;999.90;;;;;;;;;;5006708;28;20772;-66
2023/01/11 05:01:19;;;;;;;1999.90;999.90;;;;;;;;;;5001116;28;20708;-66
2023/01/11 05:03:48;;;;;;;1999.90;999.90;;;;;;;;;;5003047;28;20234;-66
2023/01/11 05:06:17;;;;;;;1999.90;999.90;;;;;;;;;;4988789;28;20230;-67
2023/01/11 05:08:46;;;;;;;1999.90;999.90;;;;;;;;;;5005864;28;20233;-66
2023/01/11 05:11:15;;;;;;;1999.90;999.90;;;;;;;;;;5004205;28;20230;-65
2023/01/11 05:13:44;;;;;;;1999.90;999.90;;;;;;;;;;5005329;28;20229;-67
2023/01/11 05:16:13;;;;;;;1999.90;999.90;;;;;;;;;;5004796;28;20236;-66
2023/01/11 05:18:42;;;;;;;1999.90;999.90;;;;;;;;;;5000728;28;20238;-71
2023/01/11 05:21:12;;;;;;;1999.90;999.90;;;;;;;;;;5009193;28;20254;-71
2023/01/11 05:23:41;;;;;;;1999.90;999.90;;;;;;;;;;4988204;28;20240;-71
2023/01/11 05:26:09;;;;;;;1999.90;999.90;;;;;;;;;;5003201;28;20327;-72
2023/01/11 05:28:37;;;;;;;1999.90;999.90;;;;;;;;;;5003045;28;20328;-72
2023/01/11 05:31:07;;;;;;;1999.90;999.90;;;;;;;;;;5003306;28;20230;-72
2023/01/11 05:33:35;;;;;;;1999.90;999.90;;;;;;;;;;5002490;28;20245;-72
2023/01/11 05:36:04;;;;;;;1999.90;999.90;;;;;;;;;;5003204;28;20333;-72
2023/01/11 05:38:33;;;;;;;1999.90;999.90;;;;;;;;;;5018435;28;20296;-73
2023/01/11 05:41:02;;;;;;;1999.90;999.90;;;;;;;;;;4983879;28;20234;-73
2023/01/11 05:43:30;;;;;;;1999.90;999.90;;;;;;;;;;5001422;28;20308;-73
2023/01/11 05:45:58;;;;;;;1999.90;999.90;;;;;;;;;;5001883;28;20232;-73
2023/01/11 05:48:27;;;;;;;1999.90;999.90;;;;;;;;;;5002535;28;20241;-72
2023/01/11 05:50:56;;;;;;;1999.90;999.90;;;;;;;;;;5003129;28;20722;-73
2023/01/11 05:53:24;;;;;;;1999.90;999.90;;;;;;;;;;5001593;28;20250;-73
2023/01/11 05:55:53;;;;;;;1999.90;999.90;;;;;;;;;;5005081;28;20240;-68
2023/01/11 05:58:22;;;;;;;1999.90;999.90;;;;;;;;;;5008082;28;20264;-68
2023/01/11 06:00:50;;;;;;;1999.90;999.90;;;;;;;;;;5008483;28;20306;-68
2023/01/11 06:03:18;;;;;;;1999.90;999.90;;;;;;;;;;5002928;28;20234;-68
2023/01/11 06:05:47;;;;;;;1999.90;999.90;;;;;;;;;;5005129;28;20740;-68
2023/01/11 06:08:16;;;;;;;1999.90;999.90;;;;;;;;;;5001182;28;20238;-68
2023/01/11 06:10:45;;;;;;;1999.90;999.90;;;;;;;;;;5002277;28;20234;-68
2023/01/11 06:13:28;;;;;;;1999.90;999.90;;;;;;;;;;5005135;28;20230;-68
2023/01/11 06:15:59;;;;;;;1999.90;999.90;;;;;;;;;;5003421;28;20313;-68
2023/01/11 06:18:27;;;;;;;1999.90;999.90;;;;;;;;;;5004048;28;20230;-68
2023/01/11 06:20:57;;;;;;;1999.90;999.90;;;;;;;;;;5002538;28;20730;-68
2023/01/11 06:23:25;;;;;;;1999.90;999.90;;;;;;;;;;5001210;28;20237;-68
2023/01/11 06:25:54;;;;;;;1999.90;999.90;;;;;;;;;;5004416;28;20296;-68
2023/01/11 06:28:22;;;;;;;1999.90;999.90;;;;;;;;;;5009605;28;20242;-69
2023/01/11 06:30:53;;;;;;;1999.90;999.90;;;;;;;;;;5009885;28;20265;-68
2023/01/11 06:33:21;;;;;;;1999.90;999.90;;;;;;;;;;5016188;28;20309;-70
2023/01/11 06:35:50;;;;;;;1999.90;999.90;;;;;;;;;;5019288;28;20289;-69
2023/01/11 06:38:20;;;;;;;1999.90;999.90;;;;;;;;;;5018056;28;20238;-68
2023/01/11 06:40:51;;;;;;;1999.90;999.90;;;;;;;;;;5005486;28;20234;-68
2023/01/11 06:43:20;;;;;;;1999.90;999.90;;;;;;;;;;5001712;28;20317;-68
2023/01/11 06:45:48;;;;;;;1999.90;999.90;;;;;;;;;;4999320;28;20226;-69
2023/01/11 06:48:16;;;;;;;1999.90;999.90;;;;;;;;;;5004368;28;20229;-69
2023/01/11 06:50:47;;;;;;;1999.90;999.90;;;;;;;;;;5002520;28;20345;-68
2023/01/11 06:53:15;;;;;;;1999.90;999.90;;;;;;;;;;4984602;28;20674;-69
2023/01/11 06:55:44;;;;;;;1999.90;999.90;;;;;;;;;;4991410;28;20307;-69
2023/01/11 06:58:12;;;;;;;1999.90;999.90;;;;;;;;;;4997107;28;20234;-68
2023/01/11 07:00:40;;;;;;;1999.90;999.90;;;;;;;;;;4996811;28;20238;-68
2023/01/11 07:03:10;;;;;;;1999.90;999.90;;;;;;;;;;4997808;28;20230;-68
2023/01/11 07:05:39;;;;;;;1999.90;999.90;;;;;;;;;;4995418;28;20229;-68
2023/01/11 07:08:07;;;;;;;1999.90;999.90;;;;;;;;;;4992233;28;20241;-67
2023/01/11 07:10:35;;;;;;;1999.90;999.90;;;;;;;;;;4994401;28;20754;-67
2023/01/11 07:13:04;;;;;;;1999.90;999.90;;;;;;;;;;5000518;28;20284;-67
2023/01/11 07:15:33;;;;;;;1999.90;999.90;;;;;;;;;;4997749;28;20234;-67
2023/01/11 07:18:02;;;;;;;1999.90;999.90;;;;;;;;;;4995259;28;20229;-67
2023/01/11 07:20:30;;;;;;;1999.90;999.90;;;;;;;;;;4969548;28;20234;-67
2023/01/11 07:22:59;;;;;;;1999.90;999.90;;;;;;;;;;4994338;28;20237;-67
2023/01/11 07:25:27;;;;;;;1999.90;999.90;;;;;;;;;;4995528;28;20800;-67
2023/01/11 07:27:55;;;;;;;1999.90;999.90;;;;;;;;;;4991604;28;20244;-67
2023/01/11 07:30:25;;;;;;;1999.90;999.90;;;;;;;;;;4996261;28;20238;-67
2023/01/11 07:32:53;;;;;;;1999.90;999.90;;;;;;;;;;5001213;28;20238;-67
2023/01/11 07:35:21;;;;;;;1999.90;999.90;;;;;;;;;;4999750;28;20230;-67
2023/01/11 07:37:49;;;;;;;1999.90;999.90;;;;;;;;;;4998061;28;20226;-68
2023/01/11 07:40:17;;;;;;;1999.90;999.90;;;;;;;;;;4995882;28;20234;-67
2023/01/11 07:45:39;;;;;;;1999.90;999.90;;;;;;;;;;4992310;28;20237;-67
2023/01/11 07:48:13;;;;;;;1999.90;999.90;;;;;;;;;;4989106;28;20276;-67
2023/01/11 07:50:41;;;;;;;1999.90;999.90;;;;;;;;;;4994308;28;20322;-68
2023/01/11 07:53:12;;;;;;;1999.90;999.90;;;;;;;;;;4999938;28;20274;-67
2023/01/11 07:55:40;;;;;;;1999.90;999.90;;;;;;;;;;4990412;28;20240;-67
2023/01/11 07:58:10;;;;;;;1999.90;999.90;;;;;;;;;;5001231;28;20241;-68
2023/01/11 08:00:40;;;;;;;1999.90;999.90;;;;;;;;;;4996690;28;20230;-67
2023/01/11 08:03:08;;;;;;;1999.90;999.90;;;;;;;;;;5001145;28;20301;-67
2023/01/11 08:05:37;;;;;;;1999.90;999.90;;;;;;;;;;4994641;28;20229;-68
2023/01/11 08:08:05;;;;;;;1999.90;999.90;;;;;;;;;;4987793;28;20234;-67
2023/01/11 08:10:34;;;;;;;1999.90;999.90;;;;;;;;;;4982575;28;20239;-67
2023/01/11 08:15:49;;;;;;;1999.90;999.90;;;;;;;;;;5002185;28;20230;-68
2023/01/11 08:18:18;;;;;;;1999.90;999.90;;;;;;;;;;4994485;28;20602;-68
2023/01/11 08:20:46;;;;;;;1999.90;999.90;;;;;;;;;;5004780;28;20236;-68
2023/01/11 08:23:14;;;;;;;1999.90;999.90;;;;;;;;;;4980253;28;20265;-67
2023/01/11 08:25:42;;;;;;;1999.90;999.90;;;;;;;;;;5014632;28;20722;-68
2023/01/11 08:28:11;;;;;;;1999.90;999.90;;;;;;;;;;5003572;28;20237;-67
2023/01/11 08:30:39;;;;;;;1999.90;999.90;;;;;;;;;;5001170;28;20265;-67
2023/01/11 08:33:10;;;;;;;1999.90;999.90;;;;;;;;;;5003481;28;20237;-67
2023/01/11 08:35:38;;;;;;;1999.90;999.90;;;;;;;;;;5004542;28;20266;-68
2023/01/11 08:38:07;;;;;;;1999.90;999.90;;;;;;;;;;5004146;28;20832;-67
2023/01/11 08:40:35;;;;;;;1999.90;999.90;;;;;;;;;;5001716;28;20325;-68
2023/01/11 08:43:03;;;;;;;1999.90;999.90;;;;;;;;;;5006502;28;20284;-67
2023/01/11 08:45:32;;;;;;;1999.90;999.90;;;;;;;;;;5005192;28;20230;-67
2023/01/11 08:48:00;;;;;;;1999.90;999.90;;;;;;;;;;5005321;28;20240;-68
2023/01/11 08:50:30;;;;;;;1999.90;999.90;;;;;;;;;;5002421;28;20268;-68
2023/01/11 08:52:58;;;;;;;1999.90;999.90;;;;;;;;;;4993754;28;20292;-67
2023/01/11 08:55:26;;;;;;;1999.90;999.90;;;;;;;;;;5002543;28;20710;-68
2023/01/11 08:57:56;;;;;;;1999.90;999.90;;;;;;;;;;5005040;28;20815;-67
2023/01/11 09:00:24;;;;;;;1999.90;999.90;;;;;;;;;;4986435;28;20309;-67
2023/01/11 09:02:52;;;;;;;1999.90;999.90;;;;;;;;;;4980350;28;20273;-68
2023/01/11 09:05:21;;;;;;;1999.90;999.90;;;;;;;;;;5004033;28;20237;-67
2023/01/11 09:07:50;;;;;;;1999.90;999.90;;;;;;;;;;5006911;28;20238;-68
2023/01/11 09:10:18;;;;;;;1999.90;999.90;;;;;;;;;;5004629;28;20707;-67
2023/01/11 09:12:46;;;;;;;1999.90;999.90;;;;;;;;;;5010586;28;20236;-68
2023/01/11 09:15:14;;;;;;;1999.90;999.90;;;;;;;;;;5007545;28;20284;-67
2023/01/11 09:17:42;;;;;;;1999.90;999.90;;;;;;;;;;4989212;28;20682;-67
2023/01/11 09:20:11;;;;;;;1999.90;999.90;;;;;;;;;;5005484;28;20855;-68
2023/01/11 09:22:39;;;;;;;1999.90;999.90;;;;;;;;;;5005562;28;20229;-68
2023/01/11 09:25:09;;;;;;;1999.90;999.90;;;;;;;;;;5004227;28;20234;-68
2023/01/11 09:27:37;;;;;;;1999.90;999.90;;;;;;;;;;5003506;28;20269;-67
2023/01/11 09:30:05;;;;;;;1999.90;999.90;;;;;;;;;;5003853;28;21774;-67
2023/01/11 09:32:33;;;;;;;1999.90;999.90;;;;;;;;;;5003538;28;20300;-67
2023/01/11 09:35:02;;;;;;;1999.90;999.90;;;;;;;;;;5004185;28;20643;-67
2023/01/11 09:37:30;;;;;;;1999.90;999.90;;;;;;;;;;5003782;28;20935;-67
2023/01/11 09:40:00;;;;;;;1999.90;999.90;;;;;;;;;;5007394;28;20658;-68
2023/01/11 09:42:36;;;;;;;1999.90;999.90;;;;;;;;;;5000180;28;21435;-68
2023/01/11 09:45:10;;;;;;;1999.90;999.90;;;;;;;;;;4998979;28;20432;-67
2023/01/11 09:47:40;;;;;;;1999.90;999.90;;;;;;;;;;4985497;28;20312;-68
2023/01/11 09:50:12;;;;;;;1999.90;999.90;;;;;;;;;;4988705;28;20268;-67
2023/01/11 09:52:42;;;;;;;1999.90;999.90;;;;;;;;;;5015429;28;20264;-68
2023/01/11 09:55:14;;;;;;;1999.90;999.90;;;;;;;;;;5003171;28;20280;-67
2023/01/11 09:57:50;;;;;;;1999.90;999.90;;;;;;;;;;5000676;28;20230;-68
2023/01/11 10:00:22;;;;;;;1999.90;999.90;;;;;;;;;;5004714;28;20277;-67
2023/01/11 10:02:58;;;;;;;1999.90;999.90;;;;;;;;;;5004845;28;20769;-68
2023/01/11 10:05:34;;;;;;;1999.90;999.90;;;;;;;;;;5001675;28;20243;-68
2023/01/11 10:08:12;;;;;;;1999.90;999.90;;;;;;;;;;5002327;28;20237;-68
2023/01/11 10:11:04;;;;;;;1999.90;999.90;;;;;;;;;;4990291;28;20729;-68
2023/01/11 10:14:02;;;;;;;1999.90;999.90;;;;;;;;;;4999793;28;20296;-68
2023/01/11 10:16:58;;;;;;;1999.90;999.90;;;;;;;;;;5005164;28;20241;-68
2023/01/11 10:19:49;;;;;;;1999.90;999.90;;;;;;;;;;5002332;28;20942;-68
2023/01/11 10:22:19;;;;;;;1999.90;999.90;;;;;;;;;;5005532;28;20230;-67
2023/01/11 10:24:50;;;;;;;1999.90;999.90;;;;;;;;;;5004962;28;20234;-68
2023/01/11 10:27:21;;;;;;;1999.90;999.90;;;;;;;;;;5005154;28;20240;-69
2023/01/11 10:33:00;;;;;;;1999.90;999.90;;;;;;;;;;5003166;28;20256;-69
2023/01/11 10:35:57;;;;;;;1999.90;999.90;;;;;;;;;;4987086;28;20365;-69
2023/01/11 10:38:41;;;;;;;1999.90;999.90;;;;;;;;;;4998612;28;20237;-68
2023/01/11 10:41:18;;;;;;;1999.90;999.90;;;;;;;;;;5007904;22;20241;-72
2023/01/11 10:43:47;;;;;;;1999.90;999.90;;;;;;;;;;4992709;28;20238;-72
2023/01/11 10:46:18;;;;;;;1999.90;999.90;;;;;;;;;;4987496;28;21308;-72
2023/01/11 10:48:46;;;;;;;1999.90;999.90;;;;;;;;;;4986238;28;20752;-72
2023/01/11 10:51:23;;;;;;;1999.90;999.90;;;;;;;;;;4986886;28;20238;-70
2023/01/11 10:53:56;;;;;;;1999.90;999.90;;;;;;;;;;4986250;28;20236;-72
2023/01/11 10:56:26;;;;;;;1999.90;999.90;;;;;;;;;;4980756;28;20244;-72
2023/01/11 10:59:14;;;;;;;1999.90;999.90;;;;;;;;;;4983798;28;20268;-72
2023/01/11 11:01:50;;;;;;;1999.90;999.90;;;;;;;;;;4982856;28;20230;-71
2023/01/11 11:04:30;;;;;;;1999.90;999.90;;;;;;;;;;4984886;28;20237;-73
2023/01/11 11:07:02;;;;;;;1999.90;999.90;;;;;;;;;;4985995;28;20238;-72
2023/01/11 11:09:34;;;;;;;1999.90;999.90;;;;;;;;;;4993503;28;20230;-74
2023/01/11 11:12:07;;;;;;;1999.90;999.90;;;;;;;;;;4989358;28;20242;-74
2023/01/11 11:14:38;;;;;;;1999.90;999.90;;;;;;;;;;4990772;28;21567;-73
2023/01/11 11:17:13;;;;;;;1999.90;999.90;;;;;;;;;;4980489;28;20234;-74
2023/01/11 11:19:41;;;;;;;1999.90;999.90;;;;;;;;;;4986755;28;20709;-74
2023/01/11 11:22:10;;;;;;;1999.90;999.90;;;;;;;;;;4986203;28;20306;-73
2023/01/11 11:24:40;;;;;;;1999.90;999.90;;;;;;;;;;4990536;28;20257;-75
2023/01/11 11:27:15;;;;;;;1999.90;999.90;;;;;;;;;;4994027;28;20237;-74
2023/01/11 11:29:49;;;;;;;1999.90;999.90;;;;;;;;;;4985946;28;20229;-74
2023/01/11 11:32:20;;;;;;;1999.90;999.90;;;;;;;;;;4988106;28;20242;-74
2023/01/11 11:34:49;;;;;;;1999.90;999.90;;;;;;;;;;4991980;28;20241;-73
2023/01/11 11:37:22;;;;;;;1999.90;999.90;;;;;;;;;;4989615;28;20241;-74
2023/01/11 11:39:51;;;;;;;1999.90;999.90;;;;;;;;;;4990016;28;20333;-74
2023/01/11 11:42:21;;;;;;;1999.90;999.90;;;;;;;;;;4990113;28;20992;-74
2023/01/11 11:45:05;;;;;;;1999.90;999.90;;;;;;;;;;4987769;28;20683;-73
2023/01/11 11:47:36;;;;;;;1999.90;999.90;;;;;;;;;;4989697;28;20232;-73
2023/01/11 11:50:24;;;;;;;1999.90;999.90;;;;;;;;;;4993348;28;20309;-73
2023/01/11 11:53:16;;;;;;;1999.90;999.90;;;;;;;;;;4994339;28;20237;-72
2023/01/11 11:55:44;;;;;;;1999.90;999.90;;;;;;;;;;5007510;28;20810;-73
2023/01/11 11:58:14;;;;;;;1999.90;999.90;;;;;;;;;;4988765;28;20238;-73
2023/01/11 12:00:45;;;;;;;1999.90;999.90;;;;;;;;;;4982477;28;20241;-73
2023/01/11 12:03:17;;;;;;;1999.90;999.90;;;;;;;;;;4986042;28;20237;-74
2023/01/11 12:05:49;;;;;;;1999.90;999.90;;;;;;;;;;4988466;28;21525;-72
2023/01/11 12:08:18;;;;;;;1999.90;999.90;;;;;;;;;;4978237;28;20614;-73
2023/01/11 12:10:48;;;;;;;1999.90;999.90;;;;;;;;;;4985148;28;20237;-72
2023/01/11 12:13:26;;;;;;;1999.90;999.90;;;;;;;;;;4968474;28;20736;-73
2023/01/11 12:15:58;;;;;;;1999.90;999.90;;;;;;;;;;4989941;28;20340;-75
2023/01/11 12:18:30;;;;;;;1999.90;999.90;;;;;;;;;;4987207;28;20228;-73
2023/01/11 12:21:08;;;;;;;1999.90;999.90;;;;;;;;;;4984548;28;20299;-74
2023/01/11 12:23:36;;;;;;;1999.90;999.90;;;;;;;;;;4982108;28;20771;-74
2023/01/11 12:26:11;;;;;;;1999.90;999.90;;;;;;;;;;4983761;28;20746;-74
2023/01/11 12:28:48;;;;;;;1999.90;999.90;;;;;;;;;;4985429;28;20233;-75
2023/01/11 12:31:22;;;;;;;1999.90;999.90;;;;;;;;;;4980431;28;20262;-75
2023/01/11 12:33:55;;;;;;;1999.90;999.90;;;;;;;;;;4986133;28;20237;-74
2023/01/11 12:36:26;;;;;;;1999.90;999.90;;;;;;;;;;4980947;28;20323;-73
2023/01/11 12:38:59;;;;;;;1999.90;999.90;;;;;;;;;;4973563;28;20614;-74
2023/01/11 12:41:54;;;;;;;1999.90;999.90;;;;;;;;;;4986182;28;21079;-74
2023/01/11 12:44:31;;;;;;;1999.90;999.90;;;;;;;;;;4946542;28;20236;-74
2023/01/11 12:47:10;;;;;;;1999.90;999.90;;;;;;;;;;4967937;28;20326;-72
2023/01/11 12:49:45;;;;;;;1999.90;999.90;;;;;;;;;;4966198;28;20240;-73
2023/01/11 12:52:38;;;;;;;1999.90;999.90;;;;;;;;;;4983157;28;20284;-72
2023/01/11 12:55:20;;;;;;;1999.90;999.90;;;;;;;;;;4969548;28;20341;-73
2023/01/11 12:58:00;;;;;;;1999.90;999.90;;;;;;;;;;4993324;28;20262;-72
2023/01/11 13:00:43;;;;;;;1999.90;999.90;;;;;;;;;;4984444;28;20234;-74
2023/01/11 13:03:28;;;;;;;1999.90;999.90;;;;;;;;;;4985792;28;21205;-74
2023/01/11 13:06:01;;;;;;;1999.90;999.90;;;;;;;;;;4982284;28;20309;-74
2023/01/11 13:08:33;;;;;;;1999.90;999.90;;;;;;;;;;4980998;28;20329;-72
2023/01/11 13:11:06;;;;;;;1999.90;999.90;;;;;;;;;;4980834;28;20334;-73
2023/01/11 13:13:36;;;;;;;1999.90;999.90;;;;;;;;;;4980940;28;20285;-73
2023/01/11 13:16:07;;;;;;;1999.90;999.90;;;;;;;;;;4986813;28;20308;-73
2023/01/11 13:18:40;;;;;;;1999.90;999.90;;;;;;;;;;4973492;28;20238;-72
2023/01/11 13:21:15;;;;;;;1999.90;999.90;;;;;;;;;;4984041;28;20238;-73
2023/01/11 13:23:46;;;;;;;1999.90;999.90;;;;;;;;;;4993189;28;20241;-73
2023/01/11 13:26:20;;;;;;;1999.90;999.90;;;;;;;;;;4973667;28;20230;-71
2023/01/11 13:28:50;;;;;;;1999.90;999.90;;;;;;;;;;4991125;28;20230;-71
2023/01/11 13:31:19;;;;;;;1999.90;999.90;;;;;;;;;;4972995;28;20325;-74
2023/01/11 13:33:49;;;;;;;1999.90;999.90;;;;;;;;;;4971886;28;20243;-73
2023/01/11 13:36:21;;;;;;;1999.90;999.90;;;;;;;;;;4988262;28;20308;-73
2023/01/11 13:38:55;;;;;;;1999.90;999.90;;;;;;;;;;4982320;28;20223;-73
2023/01/11 13:41:25;;;;;;;1999.90;999.90;;;;;;;;;;4975521;28;20238;-73
2023/01/11 13:43:55;;;;;;;1999.90;999.90;;;;;;;;;;4983364;28;20234;-71
2023/01/11 13:46:36;;;;;;;1999.90;999.90;;;;;;;;;;4983587;28;20230;-74
2023/01/11 13:49:06;;;;;;;1999.90;999.90;;;;;;;;;;4987990;28;20218;-71
2023/01/11 13:51:38;;;;;;;1999.90;999.90;;;;;;;;;;4965861;28;20234;-73
2023/01/11 13:54:11;;;;;;;1999.90;999.90;;;;;;;;;;4978884;28;20238;-74
2023/01/11 13:56:41;;;;;;;1999.90;999.90;;;;;;;;;;4981629;28;20701;-74
2023/01/11 13:59:11;;;;;;;1999.90;999.90;;;;;;;;;;4987337;28;20238;-73
2023/01/11 14:01:42;;;;;;;1999.90;999.90;;;;;;;;;;5002940;28;20345;-74
2023/01/11 14:04:13;;;;;;;1999.90;999.90;;;;;;;;;;4983931;28;20239;-74
2023/01/11 14:06:52;;;;;;;1999.90;999.90;;;;;;;;;;4984054;28;20235;-74
2023/01/11 14:09:26;;;;;;;1999.90;999.90;;;;;;;;;;4975202;28;21499;-74
2023/01/11 14:11:59;;;;;;;1999.90;999.90;;;;;;;;;;4988981;28;20234;-73
2023/01/11 14:14:41;;;;;;;1999.90;999.90;;;;;;;;;;4976076;28;20712;-75
2023/01/11 14:17:27;;;;;;;1999.90;999.90;;;;;;;;;;4974670;28;20241;-75
2023/01/11 14:20:00;;;;;;;1999.90;999.90;;;;;;;;;;4933958;28;20246;-74
2023/01/11 14:22:34;;;;;;;1999.90;999.90;;;;;;;;;;4976716;28;20316;-75
2023/01/11 14:25:04;;;;;;;1999.90;999.90;;;;;;;;;;4977060;28;20276;-75
2023/01/11 14:27:50;;;;;;;1999.90;999.90;;;;;;;;;;4976918;28;20223;-72